createdAt,value
2023-02-02T00:18:26.890Z,19.7
2023-02-02T00:48:26.870Z,19.6
2023-02-02T01:18:26.557Z,19.6
2023-02-02T01:48:26.860Z,19.5
2023-02-02T02:18:26.896Z,19.4
2023-02-02T02:48:26.849Z,19.3
2023-02-02T03:18:26.814Z,19.3
2023-02-02T03:48:26.849Z,19.2
2023-02-02T04:18:26.861Z,19.2
2023-02-02T04:48:26.882Z,19.4
2023-02-02T05:18:26.874Z,19.6
2023-02-02T05:48:26.859Z,19.9
2023-02-02T06:18:26.823Z,20.1
2023-02-02T06:48:26.890Z,20.1
2023-02-02T07:18:26.855Z,20.4
2023-02-02T07:48:26.865Z,20.5
2023-02-02T08:18:26.835Z,20.6
2023-02-02T08:48:26.850Z,20.7
2023-02-02T09:18:26.820Z,20.8
2023-02-02T09:48:26.840Z,20.7
2023-02-02T10:18:26.855Z,20.7
2023-02-02T10:48:26.830Z,20.8
2023-02-02T11:18:26.811Z,20.7
2023-02-02T11:48:26.821Z,20.7
2023-02-02T12:18:26.830Z,20.6
2023-02-02T12:48:26.835Z,20.6
2023-02-02T13:18:26.830Z,20.6
2023-02-02T13:48:26.836Z,20.4
2023-02-02T14:18:26.817Z,20.5
2023-02-02T14:48:26.593Z,20.5
2023-02-02T15:18:26.799Z,20.5
2023-02-02T15:48:26.536Z,20.5
2023-02-02T16:18:26.806Z,20.5
2023-02-02T16:48:26.825Z,20.5
2023-02-02T17:18:26.790Z,20.5
2023-02-02T17:48:26.803Z,20.5
2023-02-02T18:18:26.814Z,20.5
2023-02-02T18:48:26.850Z,20.6
2023-02-02T19:18:26.795Z,20.6
2023-02-02T19:48:26.852Z,20.6
2023-02-02T20:18:26.780Z,20.6
2023-02-02T20:48:26.772Z,20.5
2023-02-02T21:18:26.807Z,20.3
2023-02-02T21:48:26.938Z,20.2
2023-02-02T22:18:26.868Z,20.1
2023-02-02T22:48:26.758Z,20.0
2023-02-02T23:18:26.492Z,20.0
2023-02-02T23:48:26.791Z,19.8
